createdAt,value
2023-05-12T00:00:07.698Z,1036.00
2023-05-12T00:01:07.769Z,1035.00
2023-05-12T00:02:07.815Z,1048.00
2023-05-12T00:03:07.942Z,1062.00
2023-05-12T00:04:08.113Z,1059.00
2023-05-12T00:05:07.958Z,1069.00
2023-05-12T00:06:08.025Z,1068.00
2023-05-12T00:07:08.090Z,1047.00
2023-05-12T00:08:08.158Z,1043.00
2023-05-12T00:09:08.184Z,1048.00
2023-05-12T00:10:08.275Z,1047.00
2023-05-12T00:11:08.330Z,1051.00
2023-05-12T00:12:08.398Z,1007.00
2023-05-12T00:13:08.445Z,1028.00
2023-05-12T00:14:08.489Z,1041.00
2023-05-12T00:15:08.545Z,1040.00
2023-05-12T00:16:08.660Z,1002.00
2023-05-12T00:17:08.661Z,1018.00
2023-05-12T00:18:08.715Z,1028.00
2023-05-12T00:19:08.882Z,1040.00
2023-05-12T00:20:08.839Z,1015.00
2023-05-12T00:21:08.916Z,1008.00
2023-05-12T00:22:08.968Z,992.00
2023-05-12T00:23:09.022Z,1004.00
2023-05-12T00:24:09.071Z,991.00
2023-05-12T00:25:09.142Z,991.00
2023-05-12T00:26:09.195Z,991.00
2023-05-12T00:27:09.266Z,980.00
2023-05-12T00:28:09.321Z,969.00
2023-05-12T00:29:09.392Z,983.00
2023-05-12T00:30:09.435Z,974.00
2023-05-12T00:31:09.529Z,971.00
2023-05-12T00:32:09.598Z,973.00
2023-05-12T00:33:09.622Z,1000.00
2023-05-12T00:34:09.693Z,995.00
2023-05-12T00:35:09.738Z,1016.00
2023-05-12T00:36:09.781Z,1052.00
2023-05-12T00:37:09.854Z,1063.00
2023-05-12T00:38:09.918Z,1066.00
2023-05-12T00:39:09.964Z,1088.00
2023-05-12T00:40:10.001Z,1093.00
2023-05-12T00:41:10.124Z,1109.00
2023-05-12T00:42:10.129Z,1119.00
2023-05-12T00:43:10.194Z,1120.00
2023-05-12T00:44:10.258Z,1118.00
2023-05-12T00:45:10.337Z,1133.00
2023-05-12T00:46:10.406Z,1130.00
2023-05-12T00:47:10.440Z,1128.00
2023-05-12T00:48:10.502Z,1115.00
2023-05-12T00:49:10.573Z,1120.00
2023-05-12T00:50:10.614Z,1118.00
2023-05-12T00:51:10.691Z,1119.00
2023-05-12T00:52:10.770Z,1118.00
2023-05-12T00:53:10.785Z,1140.00
2023-05-12T00:54:10.860Z,1133.00
2023-05-12T00:55:10.936Z,1131.00
2023-05-12T00:56:10.984Z,1138.00
2023-05-12T00:57:11.061Z,1134.00
2023-05-12T00:58:11.132Z,1144.00
2023-05-12T00:59:11.176Z,1108.00
2023-05-12T01:00:11.241Z,1106.00
2023-05-12T01:01:11.339Z,1118.00
2023-05-12T01:02:11.439Z,1096.00
2023-05-12T01:03:11.515Z,1094.00
2023-05-12T01:04:11.531Z,1084.00
2023-05-12T01:05:11.549Z,1076.00
2023-05-12T01:06:11.630Z,1071.00
2023-05-12T01:07:11.659Z,1098.00
2023-05-12T01:08:11.729Z,1082.00
2023-05-12T01:09:11.804Z,1073.00
2023-05-12T01:10:11.841Z,1081.00
2023-05-12T01:11:11.918Z,1095.00
2023-05-12T01:12:11.976Z,1091.00
2023-05-12T01:13:12.024Z,1074.00
2023-05-12T01:14:12.097Z,1070.00
2023-05-12T01:15:12.145Z,1067.00
2023-05-12T01:16:12.208Z,1069.00
2023-05-12T01:17:12.337Z,1064.00
2023-05-12T01:18:12.315Z,1079.00
2023-05-12T01:19:12.444Z,1062.00
2023-05-12T01:20:12.452Z,1078.00
2023-05-12T01:21:12.501Z,1068.00
2023-05-12T01:22:12.576Z,1077.00
2023-05-12T01:23:12.637Z,1072.00
2023-05-12T01:24:12.692Z,1077.00
2023-05-12T01:25:12.742Z,1087.00
2023-05-12T01:26:12.817Z,1069.00
2023-05-12T01:27:12.893Z,1091.00
2023-05-12T01:28:12.944Z,1100.00
2023-05-12T01:29:13.007Z,1092.00
2023-05-12T01:30:13.055Z,1105.00
2023-05-12T01:31:13.142Z,1114.00
2023-05-12T01:32:13.191Z,1132.00
2023-05-12T01:33:13.251Z,1145.00
2023-05-12T01:34:13.308Z,1162.00
2023-05-12T01:35:13.355Z,1161.00
2023-05-12T01:36:13.420Z,1153.00
2023-05-12T01:37:13.479Z,1173.00
2023-05-12T01:38:13.549Z,1156.00
2023-05-12T01:39:13.597Z,1169.00
2023-05-12T01:40:13.690Z,1181.00
2023-05-12T01:41:13.744Z,1161.00
2023-05-12T01:42:13.772Z,1167.00
2023-05-12T01:43:13.853Z,1170.00
2023-05-12T01:44:13.910Z,1168.00
2023-05-12T01:45:13.967Z,1157.00
2023-05-12T01:46:14.059Z,1163.00
2023-05-12T01:47:14.076Z,1181.00
2023-05-12T01:48:14.134Z,1172.00
2023-05-12T01:49:14.195Z,1171.00
2023-05-12T01:50:14.267Z,1179.00
2023-05-12T01:51:14.338Z,1153.00
2023-05-12T01:52:14.382Z,1181.00
2023-05-12T01:53:14.428Z,1158.00
2023-05-12T01:54:14.481Z,1184.00
2023-05-12T01:55:14.546Z,1169.00
2023-05-12T01:56:14.638Z,1170.00
2023-05-12T01:57:14.713Z,1180.00
2023-05-12T01:58:14.753Z,1179.00
2023-05-12T01:59:14.843Z,1183.00
2023-05-12T02:00:14.862Z,1179.00
2023-05-12T02:01:14.948Z,1185.00
2023-05-12T02:02:15.067Z,1176.00
2023-05-12T02:03:15.122Z,1167.00
2023-05-12T02:04:15.173Z,1154.00
2023-05-12T02:05:15.164Z,1148.00
2023-05-12T02:06:15.244Z,1134.00
2023-05-12T02:07:15.310Z,1117.00
2023-05-12T02:08:15.383Z,1101.00
2023-05-12T02:09:15.408Z,1070.00
2023-05-12T02:10:15.513Z,1074.00
2023-05-12T02:11:15.540Z,1036.00
2023-05-12T02:12:15.614Z,1017.00
2023-05-12T02:13:15.662Z,976.00
2023-05-12T02:14:15.738Z,969.00
2023-05-12T02:15:15.783Z,935.00
2023-05-12T02:16:15.923Z,950.00
2023-05-12T02:17:15.909Z,958.00
2023-05-12T02:18:15.967Z,935.00
2023-05-12T02:19:16.053Z,911.00
2023-05-12T02:20:16.097Z,921.00
2023-05-12T02:21:16.140Z,899.00
2023-05-12T02:22:16.196Z,894.00
2023-05-12T02:23:16.260Z,874.00
2023-05-12T02:24:16.314Z,860.00
2023-05-12T02:25:16.388Z,853.00
2023-05-12T02:26:16.452Z,818.00
2023-05-12T02:27:16.510Z,826.00
2023-05-12T02:28:16.557Z,815.00
2023-05-12T02:29:16.638Z,809.00
2023-05-12T02:30:16.710Z,797.00
2023-05-12T02:31:16.755Z,797.00
2023-05-12T02:32:16.820Z,794.00
2023-05-12T02:33:16.897Z,809.00
2023-05-12T02:34:16.930Z,775.00
2023-05-12T02:35:17.009Z,776.00
2023-05-12T02:36:17.065Z,782.00
2023-05-12T02:37:17.124Z,771.00
2023-05-12T02:38:17.194Z,795.00
2023-05-12T02:39:17.232Z,783.00
2023-05-12T02:40:17.347Z,798.00
2023-05-12T02:41:17.385Z,782.00
2023-05-12T02:42:17.396Z,757.00
2023-05-12T02:43:17.463Z,752.00
2023-05-12T02:44:17.508Z,758.00
2023-05-12T02:45:17.579Z,744.00
2023-05-12T02:46:17.716Z,722.00
2023-05-12T02:47:17.706Z,725.00
2023-05-12T02:48:17.758Z,720.00
2023-05-12T02:49:17.855Z,696.00
2023-05-12T02:50:17.924Z,712.00
2023-05-12T02:51:17.949Z,691.00
2023-05-12T02:52:18.002Z,692.00
2023-05-12T02:53:18.067Z,676.00
2023-05-12T02:54:18.135Z,660.00
2023-05-12T02:55:18.184Z,658.00
2023-05-12T02:56:18.256Z,658.00
2023-05-12T02:57:18.325Z,648.00
2023-05-12T02:58:18.373Z,656.00
2023-05-12T02:59:18.426Z,657.00
2023-05-12T03:00:18.624Z,649.00
2023-05-12T03:01:18.583Z,654.00
2023-05-12T03:02:18.699Z,647.00
2023-05-12T03:03:18.752Z,653.00
2023-05-12T03:04:18.738Z,651.00
2023-05-12T03:05:18.786Z,658.00
2023-05-12T03:06:18.851Z,654.00
2023-05-12T03:07:18.961Z,650.00
2023-05-12T03:08:18.972Z,651.00
2023-05-12T03:09:19.003Z,658.00
2023-05-12T03:10:19.504Z,651.00
2023-05-12T03:11:19.130Z,650.00
2023-05-12T03:12:19.191Z,657.00
2023-05-12T03:13:19.270Z,660.00
2023-05-12T03:14:19.308Z,654.00
2023-05-12T03:15:19.391Z,653.00
2023-05-12T03:16:19.808Z,658.00
2023-05-12T03:17:19.541Z,656.00
2023-05-12T03:18:19.636Z,657.00
2023-05-12T03:19:19.624Z,649.00
2023-05-12T03:20:20.059Z,658.00
2023-05-12T03:21:19.751Z,657.00
2023-05-12T03:22:19.833Z,654.00
2023-05-12T03:23:19.868Z,655.00
2023-05-12T03:24:19.928Z,658.00
2023-05-12T03:25:20.006Z,654.00
2023-05-12T03:26:20.053Z,660.00
2023-05-12T03:27:20.125Z,649.00
2023-05-12T03:28:20.167Z,645.00
2023-05-12T03:29:20.223Z,652.00
2023-05-12T03:30:20.426Z,655.00
2023-05-12T03:31:20.364Z,651.00
2023-05-12T03:32:20.431Z,649.00
2023-05-12T03:33:20.453Z,653.00
2023-05-12T03:34:20.542Z,652.00
2023-05-12T03:35:20.607Z,653.00
2023-05-12T03:36:20.646Z,656.00
2023-05-12T03:37:20.710Z,650.00
2023-05-12T03:38:20.774Z,649.00
2023-05-12T03:39:20.844Z,655.00
2023-05-12T03:40:21.185Z,653.00
2023-05-12T03:41:20.959Z,650.00
2023-05-12T03:42:21.025Z,656.00
2023-05-12T03:43:21.082Z,662.00
2023-05-12T03:44:21.157Z,654.00
2023-05-12T03:45:21.195Z,662.00
2023-05-12T03:46:21.323Z,663.00
2023-05-12T03:47:21.408Z,661.00
2023-05-12T03:48:21.406Z,660.00
2023-05-12T03:49:21.438Z,655.00
2023-05-12T03:50:21.652Z,655.00
2023-05-12T03:51:21.555Z,664.00
2023-05-12T03:52:21.627Z,663.00
2023-05-12T03:53:21.661Z,671.00
2023-05-12T03:54:21.736Z,665.00
2023-05-12T03:55:21.760Z,659.00
2023-05-12T03:56:21.816Z,659.00
2023-05-12T03:57:21.887Z,659.00
2023-05-12T03:58:21.904Z,679.00
2023-05-12T03:59:21.960Z,665.00
2023-05-12T04:00:22.279Z,663.00
2023-05-12T04:01:22.061Z,682.00
2023-05-12T04:02:22.201Z,679.00
2023-05-12T04:03:22.249Z,696.00
2023-05-12T04:04:22.232Z,702.00
2023-05-12T04:05:22.301Z,710.00
2023-05-12T04:06:22.344Z,730.00
2023-05-12T04:07:22.438Z,742.00
2023-05-12T04:08:22.464Z,737.00
2023-05-12T04:09:22.528Z,740.00
2023-05-12T04:10:22.565Z,760.00
2023-05-12T04:11:22.632Z,750.00
2023-05-12T04:12:22.678Z,762.00
2023-05-12T04:13:22.686Z,764.00
2023-05-12T04:14:29.194Z,760.00
2023-05-12T04:15:23.707Z,761.00
2023-05-12T04:16:22.771Z,765.00
2023-05-12T04:17:22.755Z,772.00
2023-05-12T04:18:22.718Z,780.00
2023-05-12T04:19:22.714Z,813.00
2023-05-12T04:20:22.778Z,810.00
2023-05-12T04:21:22.704Z,832.00
2023-05-12T04:22:24.826Z,814.00
2023-05-12T04:23:22.682Z,827.00
2023-05-12T04:24:22.645Z,833.00
2023-05-12T04:25:22.636Z,847.00
2023-05-12T04:26:22.631Z,843.00
2023-05-12T04:27:22.634Z,847.00
2023-05-12T04:28:22.647Z,852.00
2023-05-12T04:29:22.645Z,872.00
2023-05-12T04:30:22.685Z,866.00
2023-05-12T04:31:22.657Z,880.00
2023-05-12T04:32:22.642Z,895.00
2023-05-12T04:33:22.598Z,886.00
2023-05-12T04:34:22.585Z,903.00
2023-05-12T04:35:22.576Z,909.00
2023-05-12T04:36:22.589Z,906.00
2023-05-12T04:37:22.578Z,911.00
2023-05-12T04:38:22.575Z,916.00
2023-05-12T04:39:22.578Z,886.00
2023-05-12T04:40:22.847Z,896.00
2023-05-12T04:41:22.559Z,871.00
2023-05-12T04:42:22.570Z,878.00
2023-05-12T04:44:22.515Z,868.00
2023-05-12T04:45:22.768Z,871.00
2023-05-12T04:46:22.572Z,872.00
2023-05-12T04:47:22.532Z,878.00
2023-05-12T04:48:22.485Z,892.00
2023-05-12T04:49:22.497Z,885.00
2023-05-12T04:50:22.483Z,883.00
2023-05-12T04:51:22.477Z,878.00
2023-05-12T04:52:23.974Z,881.00
2023-05-12T04:53:22.467Z,906.00
2023-05-12T04:54:22.468Z,900.00
2023-05-12T04:55:22.526Z,930.00
2023-05-12T04:56:22.513Z,952.00
2023-05-12T04:57:22.575Z,963.00
2023-05-12T04:58:22.650Z,936.00
2023-05-12T04:59:22.719Z,938.00
2023-05-12T05:00:22.767Z,939.00
2023-05-12T05:01:22.857Z,952.00
2023-05-12T05:02:22.977Z,951.00
2023-05-12T05:03:23.028Z,949.00
2023-05-12T05:04:23.030Z,944.00
2023-05-12T05:05:23.217Z,950.00
2023-05-12T05:06:23.119Z,968.00
2023-05-12T05:07:23.200Z,973.00
2023-05-12T05:08:23.244Z,981.00
2023-05-12T05:09:23.296Z,989.00
2023-05-12T05:10:23.357Z,989.00
2023-05-12T05:11:23.409Z,975.00
2023-05-12T05:12:23.470Z,965.00
2023-05-12T05:13:23.518Z,951.00
2023-05-12T05:14:23.589Z,957.00
2023-05-12T05:15:23.659Z,966.00
2023-05-12T05:16:23.772Z,971.00
2023-05-12T05:17:23.792Z,976.00
2023-05-12T05:18:24.538Z,964.00
2023-05-12T05:19:35.355Z,972.00
2023-05-12T05:21:23.857Z,972.00
2023-05-12T05:22:23.874Z,971.00
2023-05-12T05:23:23.841Z,964.00
2023-05-12T05:24:23.822Z,955.00
2023-05-12T05:25:23.809Z,960.00
2023-05-12T05:26:23.830Z,960.00
2023-05-12T05:27:24.306Z,969.00
2023-05-12T05:28:23.869Z,965.00
2023-05-12T05:29:23.925Z,1013.00
2023-05-12T05:30:23.965Z,1069.00
2023-05-12T05:31:24.053Z,1095.00
2023-05-12T05:32:24.099Z,1142.00
2023-05-12T05:33:24.120Z,1160.00
2023-05-12T05:34:24.167Z,1184.00
2023-05-12T05:35:24.230Z,1264.00
2023-05-12T05:36:24.337Z,1351.00
2023-05-12T05:37:24.323Z,1387.00
2023-05-12T05:38:24.372Z,1409.00
2023-05-12T05:39:24.382Z,1428.00
2023-05-12T05:40:24.424Z,1539.00
2023-05-12T05:41:24.485Z,1554.00
2023-05-12T05:42:24.816Z,1581.00
2023-05-12T05:43:24.553Z,1607.00
2023-05-12T05:44:24.583Z,1699.00
2023-05-12T05:45:25.526Z,1689.00
2023-05-12T05:46:24.607Z,1750.00
2023-05-12T05:47:24.850Z,1808.00
2023-05-12T05:48:24.632Z,1799.00
2023-05-12T05:49:24.627Z,1841.00
2023-05-12T05:50:24.652Z,1878.00
2023-05-12T05:51:24.680Z,1855.00
2023-05-12T05:52:24.824Z,1891.00
2023-05-12T05:53:24.700Z,1927.00
2023-05-12T05:54:24.690Z,1966.00
2023-05-12T05:55:24.723Z,1986.00
2023-05-12T05:56:24.723Z,1987.00
2023-05-12T05:57:24.759Z,1969.00
2023-05-12T05:58:24.742Z,1973.00
2023-05-12T05:59:24.745Z,1999.00
2023-05-12T06:00:24.744Z,2012.00
2023-05-12T06:01:24.745Z,2006.00
2023-05-12T06:02:24.898Z,1930.00
2023-05-12T06:03:24.871Z,1923.00
2023-05-12T06:04:24.886Z,1915.00
2023-05-12T06:05:24.740Z,1896.00
2023-05-12T06:06:24.752Z,1917.00
2023-05-12T06:07:24.757Z,1912.00
2023-05-12T06:08:24.810Z,1949.00
2023-05-12T06:09:24.743Z,1942.00
2023-05-12T06:10:25.358Z,1900.00
2023-05-12T06:11:24.733Z,1774.00
2023-05-12T06:12:24.732Z,1854.00
2023-05-12T06:13:24.721Z,1888.00
2023-05-12T06:14:24.728Z,1893.00
2023-05-12T06:15:24.730Z,1935.00
2023-05-12T06:16:24.764Z,1915.00
2023-05-12T06:17:24.804Z,1890.00
2023-05-12T06:18:24.831Z,1923.00
2023-05-12T06:19:24.825Z,1824.00
2023-05-12T06:20:24.849Z,1850.00
2023-05-12T06:21:24.945Z,1906.00
2023-05-12T06:22:25.351Z,1915.00
2023-05-12T06:23:24.896Z,1814.00
2023-05-12T06:24:24.880Z,1858.00
2023-05-12T06:25:24.862Z,1792.00
2023-05-12T06:26:24.912Z,1830.00
2023-05-12T06:27:25.333Z,1902.00
2023-05-12T06:28:24.954Z,1919.00
2023-05-12T06:29:25.010Z,1927.00
2023-05-12T06:30:25.887Z,1934.00
2023-05-12T06:31:25.158Z,1885.00
2023-05-12T06:32:25.369Z,1840.00
2023-05-12T06:33:25.348Z,1808.00
2023-05-12T06:34:26.237Z,1925.00
2023-05-12T06:35:25.304Z,1966.00
2023-05-12T06:36:25.363Z,1968.00
2023-05-12T06:37:25.849Z,2017.00
2023-05-12T06:38:25.440Z,1963.00
2023-05-12T06:39:25.475Z,2008.00
2023-05-12T06:40:25.555Z,2087.00
2023-05-12T06:41:25.564Z,2110.00
2023-05-12T06:42:25.638Z,2116.00
2023-05-12T06:43:25.696Z,2119.00
2023-05-12T06:44:25.749Z,2131.00
2023-05-12T06:45:25.789Z,2148.00
2023-05-12T06:46:25.920Z,2187.00
2023-05-12T06:47:26.363Z,2197.00
2023-05-12T06:48:26.331Z,2201.00
2023-05-12T06:49:26.057Z,2189.00
2023-05-12T06:50:26.152Z,2171.00
2023-05-12T06:51:26.163Z,2165.00
2023-05-12T06:52:26.209Z,2164.00
2023-05-12T06:53:26.328Z,2183.00
2023-05-12T06:54:26.334Z,2174.00
2023-05-12T06:55:26.394Z,2165.00
2023-05-12T06:56:26.443Z,2160.00
2023-05-12T06:57:26.478Z,2153.00
2023-05-12T06:58:26.841Z,2142.00
2023-05-12T06:59:26.593Z,2147.00
2023-05-12T07:00:26.670Z,2152.00
2023-05-12T07:01:26.783Z,2140.00
2023-05-12T07:02:26.778Z,2121.00
2023-05-12T07:03:26.816Z,2109.00
2023-05-12T07:04:26.852Z,2112.00
2023-05-12T07:05:26.907Z,2129.00
2023-05-12T07:06:26.955Z,2107.00
2023-05-12T07:07:26.970Z,2100.00
2023-05-12T07:08:27.031Z,2113.00
2023-05-12T07:09:27.070Z,2113.00
2023-05-12T07:10:27.119Z,2117.00
2023-05-12T07:11:27.160Z,2119.00
2023-05-12T07:12:27.204Z,2111.00
2023-05-12T07:13:27.253Z,2116.00
2023-05-12T07:14:27.333Z,2083.00
2023-05-12T07:15:27.321Z,2096.00
2023-05-12T07:16:27.439Z,2078.00
2023-05-12T07:17:27.461Z,1998.00
2023-05-12T07:18:27.860Z,1960.00
2023-05-12T07:19:27.514Z,1987.00
2023-05-12T07:20:27.570Z,2039.00
2023-05-12T07:21:27.590Z,2063.00
2023-05-12T07:22:27.666Z,2066.00
2023-05-12T07:23:27.691Z,2057.00
2023-05-12T07:24:27.794Z,2031.00
2023-05-12T07:25:27.897Z,2002.00
2023-05-12T07:26:27.831Z,1914.00
2023-05-12T07:27:27.904Z,1957.00
2023-05-12T07:28:28.372Z,1933.00
2023-05-12T07:29:27.995Z,1940.00
2023-05-12T07:30:28.068Z,1915.00
2023-05-12T07:31:28.100Z,1662.00
2023-05-12T07:32:28.181Z,1566.00
2023-05-12T07:33:28.360Z,1518.00
2023-05-12T07:34:28.277Z,1540.00
2023-05-12T07:35:28.391Z,1621.00
2023-05-12T07:36:28.404Z,1780.00
2023-05-12T07:37:28.474Z,1848.00
2023-05-12T07:38:28.522Z,1783.00
2023-05-12T07:39:28.661Z,1799.00
2023-05-12T07:40:28.657Z,1834.00
2023-05-12T07:41:28.709Z,1854.00
2023-05-12T07:42:28.766Z,1865.00
2023-05-12T07:43:28.847Z,1840.00
2023-05-12T07:44:28.895Z,1669.00
2023-05-12T07:45:29.007Z,1721.00
2023-05-12T07:46:29.054Z,1753.00
2023-05-12T07:47:29.122Z,1795.00
2023-05-12T07:48:29.368Z,1838.00
2023-05-12T07:49:29.190Z,1829.00
2023-05-12T07:50:29.257Z,1798.00
2023-05-12T07:51:29.293Z,1793.00
2023-05-12T07:52:29.350Z,1815.00
2023-05-12T07:53:29.905Z,1827.00
2023-05-12T07:54:29.460Z,1847.00
2023-05-12T07:55:29.504Z,1866.00
2023-05-12T07:56:29.575Z,1857.00
2023-05-12T07:57:29.617Z,1794.00
2023-05-12T07:58:29.895Z,1771.00
2023-05-12T07:59:29.729Z,1776.00
2023-05-12T08:00:29.929Z,1781.00
2023-05-12T08:01:29.817Z,1789.00
2023-05-12T08:02:29.993Z,1778.00
2023-05-12T08:03:30.460Z,1796.00
2023-05-12T08:04:29.983Z,1781.00
2023-05-12T08:05:29.998Z,1792.00
2023-05-12T08:06:30.089Z,1773.00
2023-05-12T08:07:30.094Z,1777.00
2023-05-12T08:08:30.148Z,1756.00
2023-05-12T08:09:30.200Z,1800.00
2023-05-12T08:10:30.215Z,1800.00
2023-05-12T08:11:30.267Z,1793.00
2023-05-12T08:12:30.303Z,1789.00
2023-05-12T08:13:30.340Z,1788.00
2023-05-12T08:14:30.369Z,1758.00
2023-05-12T08:15:30.409Z,1720.00
2023-05-12T08:16:30.502Z,1588.00
2023-05-12T08:17:30.521Z,1677.00
2023-05-12T08:18:30.552Z,1688.00
2023-05-12T08:19:30.563Z,1660.00
2023-05-12T08:20:30.595Z,1637.00
2023-05-12T08:21:30.631Z,1483.00
2023-05-12T08:22:30.696Z,1426.00
2023-05-12T08:23:30.879Z,1400.00
2023-05-12T08:24:30.788Z,1415.00
2023-05-12T08:25:30.881Z,1456.00
2023-05-12T08:26:31.864Z,1461.00
2023-05-12T08:27:30.953Z,1475.00
2023-05-12T08:28:31.015Z,1486.00
2023-05-12T08:29:31.072Z,1477.00
2023-05-12T08:30:31.112Z,1516.00
2023-05-12T08:31:31.229Z,1623.00
2023-05-12T08:32:31.266Z,1642.00
2023-05-12T08:33:31.291Z,1696.00
2023-05-12T08:34:31.546Z,1689.00
2023-05-12T08:35:31.334Z,1596.00
2023-05-12T08:36:31.394Z,1225.00
2023-05-12T08:37:33.033Z,1106.00
2023-05-12T08:38:31.465Z,1129.00
2023-05-12T08:39:31.450Z,1199.00
2023-05-12T08:40:31.455Z,1301.00
2023-05-12T08:41:31.411Z,1335.00
2023-05-12T08:42:31.412Z,1300.00
2023-05-12T08:43:31.885Z,1089.00
2023-05-12T08:44:31.417Z,1283.00
2023-05-12T08:45:31.438Z,1168.00
2023-05-12T08:46:31.651Z,1087.00
2023-05-12T08:47:31.435Z,1086.00
2023-05-12T08:48:31.444Z,950.00
2023-05-12T08:49:31.403Z,1085.00
2023-05-12T08:50:31.372Z,1165.00
2023-05-12T08:51:31.347Z,1168.00
2023-05-12T08:52:31.352Z,1052.00
2023-05-12T08:53:31.373Z,1046.00
2023-05-12T08:54:31.346Z,904.00
2023-05-12T08:55:33.708Z,989.00
2023-05-12T08:57:31.321Z,993.00
2023-05-12T08:58:41.121Z,1015.00
2023-05-12T08:59:32.302Z,991.00
2023-05-12T09:00:31.385Z,851.00
2023-05-12T09:01:31.308Z,820.00
2023-05-12T09:02:44.744Z,861.00
2023-05-12T09:03:32.439Z,937.00
2023-05-12T09:04:31.342Z,859.00
2023-05-12T09:05:31.283Z,867.00
2023-05-12T09:06:31.258Z,829.00
2023-05-12T09:07:31.258Z,812.00
2023-05-12T09:08:31.247Z,954.00
2023-05-12T09:09:31.246Z,1112.00
2023-05-12T09:10:35.321Z,1116.00
2023-05-12T09:11:31.238Z,1060.00
2023-05-12T09:12:31.222Z,976.00
2023-05-12T09:13:31.420Z,966.00
2023-05-12T09:14:31.224Z,1044.00
2023-05-12T09:15:31.200Z,1048.00
2023-05-12T09:16:31.224Z,997.00
2023-05-12T09:17:31.218Z,998.00
2023-05-12T09:18:31.427Z,961.00
2023-05-12T09:19:31.199Z,936.00
2023-05-12T09:20:32.131Z,973.00
2023-05-12T09:21:31.195Z,889.00
2023-05-12T09:22:31.192Z,916.00
2023-05-12T09:23:31.401Z,945.00
2023-05-12T09:24:31.900Z,1023.00
2023-05-12T09:25:31.136Z,1112.00
2023-05-12T09:26:31.136Z,958.00
2023-05-12T09:27:31.131Z,636.00
2023-05-12T09:28:31.152Z,545.00
2023-05-12T09:29:32.538Z,518.00
2023-05-12T09:30:31.105Z,524.00
2023-05-12T09:31:31.155Z,504.00
2023-05-12T09:32:31.136Z,560.00
2023-05-12T09:33:31.113Z,619.00
2023-05-12T09:34:31.459Z,647.00
2023-05-12T09:35:31.102Z,659.00
2023-05-12T09:36:31.111Z,665.00
2023-05-12T09:37:31.068Z,781.00
2023-05-12T09:38:31.046Z,751.00
2023-05-12T09:39:31.422Z,719.00
2023-05-12T09:40:31.052Z,724.00
2023-05-12T09:41:31.064Z,732.00
2023-05-12T09:42:31.037Z,733.00
2023-05-12T09:43:31.439Z,865.00
2023-05-12T09:44:31.041Z,943.00
2023-05-12T09:45:31.035Z,1004.00
2023-05-12T09:46:31.180Z,1055.00
2023-05-12T09:47:31.046Z,1016.00
2023-05-12T09:48:31.449Z,967.00
2023-05-12T09:49:31.042Z,933.00
2023-05-12T09:50:40.809Z,944.00
2023-05-12T09:51:31.981Z,946.00
2023-05-12T09:52:31.087Z,877.00
2023-05-12T09:53:30.978Z,828.00
2023-05-12T09:54:31.441Z,918.00
2023-05-12T09:55:30.960Z,748.00
2023-05-12T09:56:30.945Z,753.00
2023-05-12T09:57:30.915Z,750.00
2023-05-12T09:58:30.938Z,924.00
2023-05-12T09:59:30.919Z,1148.00
2023-05-12T10:00:46.242Z,1116.00
2023-05-12T10:01:31.973Z,1120.00
2023-05-12T10:02:31.056Z,1135.00
2023-05-12T10:03:30.922Z,1103.00
2023-05-12T10:04:31.056Z,1168.00
2023-05-12T10:05:30.885Z,1187.00
2023-05-12T10:06:30.889Z,1036.00
2023-05-12T10:07:30.890Z,1014.00
2023-05-12T10:08:30.879Z,988.00
2023-05-12T10:09:30.927Z,983.00
2023-05-12T10:10:30.876Z,921.00
2023-05-12T10:11:30.866Z,900.00
2023-05-12T10:12:30.845Z,1027.00
2023-05-12T10:13:30.885Z,1102.00
2023-05-12T10:14:31.439Z,782.00
2023-05-12T10:15:31.098Z,687.00
2023-05-12T10:16:31.106Z,660.00
2023-05-12T10:17:31.174Z,612.00
2023-05-12T10:18:31.143Z,631.00
2023-05-12T10:19:31.166Z,658.00
2023-05-12T10:20:31.206Z,675.00
2023-05-12T10:21:31.266Z,770.00
2023-05-12T10:22:31.333Z,881.00
2023-05-12T10:23:31.558Z,875.00
2023-05-12T10:24:31.990Z,973.00
2023-05-12T10:25:31.561Z,1038.00
2023-05-12T10:26:31.567Z,869.00
2023-05-12T10:27:31.619Z,870.00
2023-05-12T10:28:31.637Z,945.00
2023-05-12T10:29:31.718Z,1024.00
2023-05-12T10:30:31.729Z,1070.00
2023-05-12T10:31:31.802Z,1062.00
2023-05-12T10:32:31.843Z,705.00
2023-05-12T10:33:31.863Z,551.00
2023-05-12T10:34:31.920Z,786.00
2023-05-12T10:35:31.944Z,590.00
2023-05-12T10:36:31.943Z,704.00
2023-05-12T10:37:31.995Z,669.00
2023-05-12T10:38:31.950Z,865.00
2023-05-12T10:39:31.945Z,1012.00
2023-05-12T10:40:31.954Z,1093.00
2023-05-12T10:41:31.955Z,1059.00
2023-05-12T10:42:31.946Z,987.00
2023-05-12T10:43:31.986Z,973.00
2023-05-12T10:44:31.947Z,1049.00
2023-05-12T10:45:31.966Z,1078.00
2023-05-12T10:46:31.988Z,1173.00
2023-05-12T10:47:32.006Z,1247.00
2023-05-12T10:48:32.149Z,1326.00
2023-05-12T10:49:32.434Z,1346.00
2023-05-12T10:50:32.128Z,1374.00
2023-05-12T10:51:32.189Z,1360.00
2023-05-12T10:52:32.253Z,1386.00
2023-05-12T10:53:45.121Z,1417.00
2023-05-12T10:54:33.444Z,1409.00
2023-05-12T10:55:32.395Z,1419.00
2023-05-12T10:56:32.586Z,1426.00
2023-05-12T10:57:32.528Z,1421.00
2023-05-12T10:58:32.755Z,1455.00
2023-05-12T10:59:32.517Z,1451.00
2023-05-12T11:00:33.077Z,1446.00
2023-05-12T11:01:32.521Z,1434.00
2023-05-12T11:02:32.926Z,1401.00
2023-05-12T11:03:33.464Z,1392.00
2023-05-12T11:04:32.614Z,1399.00
2023-05-12T11:05:33.285Z,1342.00
2023-05-12T11:06:32.625Z,1349.00
2023-05-12T11:07:33.018Z,1314.00
2023-05-12T11:08:32.644Z,1274.00
2023-05-12T11:09:32.646Z,1265.00
2023-05-12T11:10:33.527Z,1250.00
2023-05-12T11:11:32.619Z,1162.00
2023-05-12T11:12:33.181Z,897.00
2023-05-12T11:13:32.713Z,959.00
2023-05-12T11:14:32.953Z,901.00
2023-05-12T11:15:32.790Z,1085.00
2023-05-12T11:16:32.871Z,1162.00
2023-05-12T11:17:32.925Z,1243.00
2023-05-12T11:18:32.900Z,1185.00
2023-05-12T11:19:32.946Z,1225.00
2023-05-12T11:20:32.954Z,1273.00
2023-05-12T11:21:32.974Z,1276.00
2023-05-12T11:22:33.023Z,1296.00
2023-05-12T11:23:33.059Z,1243.00
2023-05-12T11:24:33.950Z,1153.00
2023-05-12T11:25:33.198Z,1128.00
2023-05-12T11:26:33.161Z,1149.00
2023-05-12T11:27:33.192Z,1127.00
2023-05-12T11:28:33.255Z,1089.00
2023-05-12T11:29:33.263Z,1065.00
2023-05-12T11:30:33.317Z,1201.00
2023-05-12T11:31:33.381Z,1167.00
2023-05-12T11:32:33.422Z,1139.00
2023-05-12T11:33:33.434Z,1100.00
2023-05-12T11:34:33.537Z,971.00
2023-05-12T11:35:33.534Z,922.00
2023-05-12T11:36:33.605Z,809.00
2023-05-12T11:37:33.661Z,884.00
2023-05-12T11:38:33.714Z,895.00
2023-05-12T11:39:33.749Z,929.00
2023-05-12T11:40:33.788Z,888.00
2023-05-12T11:41:33.881Z,882.00
2023-05-12T11:42:33.900Z,923.00
2023-05-12T11:43:33.969Z,950.00
2023-05-12T11:44:34.022Z,913.00
2023-05-12T11:45:34.098Z,1063.00
2023-05-12T11:46:34.129Z,967.00
2023-05-12T11:47:34.190Z,895.00
2023-05-12T11:48:34.226Z,994.00
2023-05-12T11:49:34.289Z,1118.00
2023-05-12T11:50:34.383Z,1165.00
2023-05-12T11:51:34.412Z,1146.00
2023-05-12T11:52:34.463Z,959.00
2023-05-12T11:53:34.550Z,956.00
2023-05-12T11:54:34.645Z,1078.00
2023-05-12T11:55:34.642Z,1058.00
2023-05-12T11:56:34.719Z,1115.00
2023-05-12T11:57:34.783Z,1064.00
2023-05-12T11:58:35.703Z,1006.00
2023-05-12T11:59:34.865Z,1041.00
2023-05-12T12:00:34.988Z,994.00
2023-05-12T12:01:35.007Z,913.00
2023-05-12T12:02:35.105Z,1047.00
2023-05-12T12:03:35.230Z,932.00
2023-05-12T12:04:35.525Z,885.00
2023-05-12T12:05:35.235Z,812.00
2023-05-12T12:06:35.314Z,711.00
2023-05-12T12:07:35.393Z,724.00
2023-05-12T12:08:35.435Z,794.00
2023-05-12T12:09:36.002Z,739.00
2023-05-12T12:10:35.540Z,656.00
2023-05-12T12:11:35.605Z,634.00
2023-05-12T12:12:35.685Z,625.00
2023-05-12T12:13:35.744Z,603.00
2023-05-12T12:14:35.797Z,596.00
2023-05-12T12:15:35.864Z,590.00
2023-05-12T12:16:35.983Z,573.00
2023-05-12T12:17:36.065Z,566.00
2023-05-12T12:18:36.159Z,545.00